Time;durP1;ratioP1;P1;durP2;ratioP2;P2;SDS_P1;SDS_P2;PMS_P1;PMS_P2;Temp;Humidity;BMP_temperature;BMP_pressure;BME280_temperature;BME280_humidity;BME280_pressure;Samples;Min_cycle;Max_cycle;Signal;HPM_P1;HPM_P2
2024/02/29 00:02:01;;;;;;;39.27;18.30;;;;;;;;;;5982419;24;20004;-69
2024/02/29 00:04:28;;;;;;;40.40;18.90;;;;;;;;;;5982552;24;20008;-71
2024/02/29 00:06:54;;;;;;;41.43;18.40;;;;;;;;;;5954658;24;20036;-70
2024/02/29 00:09:20;;;;;;;44.80;18.23;;;;;;;;;;5953731;24;20703;-69
2024/02/29 00:11:46;;;;;;;36.23;17.43;;;;;;;;;;5978652;24;20012;-70
2024/02/29 00:14:12;;;;;;;35.20;16.43;;;;;;;;;;5953554;24;20064;-69
2024/02/29 00:16:39;;;;;;;32.97;16.27;;;;;;;;;;5953097;24;20083;-70
2024/02/29 00:19:05;;;;;;;37.13;18.13;;;;;;;;;;5930584;24;20395;-69
2024/02/29 00:21:33;;;;;;;32.77;15.70;;;;;;;;;;5953437;24;20008;-69
2024/02/29 00:23:58;;;;;;;36.57;16.87;;;;;;;;;;5954894;24;20012;-70
2024/02/29 00:26:24;;;;;;;41.03;16.47;;;;;;;;;;5930754;24;20388;-69
2024/02/29 00:28:49;;;;;;;44.13;19.23;;;;;;;;;;5979117;24;20008;-68
2024/02/29 00:31:15;;;;;;;41.03;16.50;;;;;;;;;;5954083;24;20016;-69
2024/02/29 00:33:40;;;;;;;40.30;18.27;;;;;;;;;;5978824;24;20426;-69
2024/02/29 00:36:06;;;;;;;38.90;17.67;;;;;;;;;;5955240;24;20007;-69
2024/02/29 00:38:32;;;;;;;36.57;17.20;;;;;;;;;;5978677;24;20004;-69
2024/02/29 00:40:57;;;;;;;39.23;16.50;;;;;;;;;;5953576;24;20116;-69
2024/02/29 00:43:23;;;;;;;41.33;17.30;;;;;;;;;;5978558;24;20023;-68
2024/02/29 00:45:48;;;;;;;38.43;18.17;;;;;;;;;;5955078;24;20012;-68
2024/02/29 00:48:14;;;;;;;39.13;17.13;;;;;;;;;;5955086;24;20008;-69
2024/02/29 00:50:39;;;;;;;30.83;16.30;;;;;;;;;;5954482;24;20331;-69
2024/02/29 00:53:05;;;;;;;43.07;17.70;;;;;;;;;;5955141;24;20011;-69
2024/02/29 00:55:30;;;;;;;39.50;16.00;;;;;;;;;;5979843;23;20019;-69
2024/02/29 00:57:55;;;;;;;43.23;17.17;;;;;;;;;;5954548;24;20052;-70
2024/02/29 01:00:21;;;;;;;41.17;18.13;;;;;;;;;;5979781;24;20012;-70
2024/02/29 01:02:47;;;;;;;40.97;17.57;;;;;;;;;;5979838;24;20008;-69
2024/02/29 01:05:14;;;;;;;41.20;18.47;;;;;;;;;;5980137;24;20498;-70
2024/02/29 01:07:40;;;;;;;36.27;16.30;;;;;;;;;;5979840;24;20064;-69
2024/02/29 01:10:11;;;;;;;41.67;17.87;;;;;;;;;;5980109;24;20008;-68
2024/02/29 01:12:39;;;;;;;44.37;18.97;;;;;;;;;;5955649;24;20435;-70
2024/02/29 01:15:07;;;;;;;41.13;17.40;;;;;;;;;;5955240;24;20004;-68
2024/02/29 01:17:32;;;;;;;38.10;17.67;;;;;;;;;;5955129;24;20073;-68
2024/02/29 01:19:59;;;;;;;46.97;17.93;;;;;;;;;;5955213;24;20111;-71
2024/02/29 01:22:25;;;;;;;42.57;16.83;;;;;;;;;;5979202;24;20018;-69
2024/02/29 01:24:51;;;;;;;41.93;18.30;;;;;;;;;;5931536;24;20099;-69
2024/02/29 01:27:19;;;;;;;38.80;16.73;;;;;;;;;;5979911;24;20015;-69
2024/02/29 01:29:45;;;;;;;43.80;16.67;;;;;;;;;;5979987;24;20307;-70
2024/02/29 01:32:10;;;;;;;35.27;17.07;;;;;;;;;;5979501;24;20003;-69
2024/02/29 01:34:36;;;;;;;36.87;16.27;;;;;;;;;;5979679;24;20086;-69
2024/02/29 01:37:03;;;;;;;39.37;17.23;;;;;;;;;;5980149;24;20004;-69
2024/02/29 01:39:29;;;;;;;38.57;16.80;;;;;;;;;;5979860;24;20091;-70
2024/02/29 01:41:55;;;;;;;45.97;19.00;;;;;;;;;;5955097;24;20431;-70
2024/02/29 01:44:22;;;;;;;43.23;18.60;;;;;;;;;;5979058;24;20457;-70
2024/02/29 01:46:47;;;;;;;49.97;22.13;;;;;;;;;;5979824;24;20460;-69
2024/02/29 01:49:13;;;;;;;56.17;22.73;;;;;;;;;;5979660;23;20075;-69
2024/02/29 01:51:41;;;;;;;57.33;25.50;;;;;;;;;;5954384;24;20107;-69
2024/02/29 01:54:07;;;;;;;48.57;23.10;;;;;;;;;;5979005;24;20034;-70
2024/02/29 01:56:33;;;;;;;56.90;26.07;;;;;;;;;;5953674;23;20024;-68
2024/02/29 01:59:01;;;;;;;60.80;23.57;;;;;;;;;;5979514;24;20016;-69
2024/02/29 02:01:27;;;;;;;53.27;23.20;;;;;;;;;;5979545;24;20067;-69
2024/02/29 02:03:53;;;;;;;56.73;24.27;;;;;;;;;;5954810;24;20004;-69
2024/02/29 02:06:18;;;;;;;60.63;24.33;;;;;;;;;;5979323;24;20180;-70
2024/02/29 02:08:44;;;;;;;57.83;22.23;;;;;;;;;;5978853;24;20027;-69
2024/02/29 02:11:09;;;;;;;54.30;22.03;;;;;;;;;;5979069;24;20008;-69
2024/02/29 02:13:35;;;;;;;51.20;21.70;;;;;;;;;;5979034;24;20083;-69
2024/02/29 02:16:02;;;;;;;53.93;21.43;;;;;;;;;;5954398;24;20040;-67
2024/02/29 02:18:27;;;;;;;51.33;21.33;;;;;;;;;;5979285;24;20032;-69
2024/02/29 02:20:54;;;;;;;50.77;21.40;;;;;;;;;;5978943;24;20008;-69
2024/02/29 02:23:21;;;;;;;61.43;22.17;;;;;;;;;;5979349;24;20012;-70
2024/02/29 02:25:46;;;;;;;52.90;23.17;;;;;;;;;;5954173;24;20442;-69
2024/02/29 02:28:12;;;;;;;55.17;22.53;;;;;;;;;;5954507;24;20081;-68
2024/02/29 02:30:38;;;;;;;43.13;18.87;;;;;;;;;;5978869;24;20011;-70
2024/02/29 02:33:04;;;;;;;54.27;20.20;;;;;;;;;;5979224;24;20069;-69
2024/02/29 02:35:33;;;;;;;45.13;19.97;;;;;;;;;;5978592;24;20004;-69
2024/02/29 02:38:05;;;;;;;45.00;21.00;;;;;;;;;;5979465;24;20012;-69
2024/02/29 02:40:31;;;;;;;50.65;22.70;;;;;;;;;;5978957;24;20015;-70
2024/02/29 02:42:57;;;;;;;45.47;20.83;;;;;;;;;;5955066;24;20327;-70
2024/02/29 02:45:22;;;;;;;46.87;19.53;;;;;;;;;;5979492;24;20004;-70
2024/02/29 02:47:48;;;;;;;44.40;19.73;;;;;;;;;;5980957;24;20382;-68
2024/02/29 02:50:14;;;;;;;49.93;22.63;;;;;;;;;;5960787;24;20040;-68
2024/02/29 02:52:40;;;;;;;42.97;19.33;;;;;;;;;;5961445;24;20027;-70
2024/02/29 02:55:06;;;;;;;45.90;19.23;;;;;;;;;;5985299;23;20076;-69
2024/02/29 02:57:32;;;;;;;41.53;19.07;;;;;;;;;;5960379;24;20079;-68
2024/02/29 02:59:57;;;;;;;44.13;20.63;;;;;;;;;;5982298;24;20015;-69
2024/02/29 03:02:23;;;;;;;43.20;20.30;;;;;;;;;;5954102;24;20319;-70
2024/02/29 03:04:48;;;;;;;46.83;19.07;;;;;;;;;;5953771;24;20018;-69
2024/02/29 03:07:13;;;;;;;42.20;19.63;;;;;;;;;;5954072;24;20087;-70
2024/02/29 03:09:39;;;;;;;46.17;19.47;;;;;;;;;;5955237;24;20474;-69
2024/02/29 03:12:05;;;;;;;37.93;17.30;;;;;;;;;;5954300;24;20008;-69
2024/02/29 03:14:30;;;;;;;45.63;19.23;;;;;;;;;;5978836;24;20008;-71
2024/02/29 03:16:56;;;;;;;42.23;20.13;;;;;;;;;;5954133;24;20134;-70
2024/02/29 03:19:21;;;;;;;41.13;19.97;;;;;;;;;;5978769;24;20008;-70
2024/02/29 03:21:47;;;;;;;39.17;19.10;;;;;;;;;;5978437;24;20084;-69
2024/02/29 03:24:12;;;;;;;44.03;20.07;;;;;;;;;;5953472;24;20040;-70
2024/02/29 03:26:38;;;;;;;48.10;20.53;;;;;;;;;;5978354;24;20047;-68
2024/02/29 03:29:03;;;;;;;41.47;20.10;;;;;;;;;;5978406;24;20494;-70
2024/02/29 03:31:29;;;;;;;46.67;19.60;;;;;;;;;;5978268;24;20011;-69
2024/02/29 03:33:54;;;;;;;41.17;18.97;;;;;;;;;;5954148;24;20015;-69
2024/02/29 03:36:20;;;;;;;44.50;19.33;;;;;;;;;;5978767;24;20016;-69
2024/02/29 03:38:45;;;;;;;41.73;18.20;;;;;;;;;;5953836;24;20340;-70
2024/02/29 03:41:11;;;;;;;40.13;19.60;;;;;;;;;;5953606;24;20088;-69
2024/02/29 03:43:37;;;;;;;46.93;19.20;;;;;;;;;;5953640;24;20052;-69
2024/02/29 03:46:04;;;;;;;42.33;18.00;;;;;;;;;;5953745;24;20477;-70
2024/02/29 03:48:30;;;;;;;45.67;18.93;;;;;;;;;;5953757;24;20000;-69
2024/02/29 03:50:56;;;;;;;50.47;21.40;;;;;;;;;;5953796;24;20012;-70
2024/02/29 03:53:21;;;;;;;51.23;19.43;;;;;;;;;;5953736;24;20048;-69
2024/02/29 03:55:48;;;;;;;45.20;19.17;;;;;;;;;;5978634;23;20020;-70
2024/02/29 03:58:14;;;;;;;54.07;20.47;;;;;;;;;;5930644;24;20019;-69
2024/02/29 04:00:40;;;;;;;41.30;19.33;;;;;;;;;;5978616;24;20080;-70
2024/02/29 04:03:05;;;;;;;42.77;18.47;;;;;;;;;;5978437;24;20267;-69
2024/02/29 04:05:31;;;;;;;42.10;19.37;;;;;;;;;;5953862;24;20023;-69
2024/02/29 04:08:03;;;;;;;46.93;19.87;;;;;;;;;;5954924;24;20072;-68
2024/02/29 04:10:29;;;;;;;;;;;;;;;;;;5955895;24;20027;-68
2024/02/29 04:12:54;;;;;;;46.90;19.10;;;;;;;;;;5981631;24;20245;-69
2024/02/29 04:15:20;;;;;;;48.67;20.20;;;;;;;;;;5979248;24;20083;-70
2024/02/29 04:17:45;;;;;;;47.97;21.63;;;;;;;;;;5978576;24;20377;-70
2024/02/29 04:20:11;;;;;;;58.23;22.37;;;;;;;;;;5980074;24;20254;-69
2024/02/29 04:22:39;;;;;;;57.60;21.80;;;;;;;;;;5980058;24;20502;-69
2024/02/29 04:25:05;;;;;;;47.27;19.30;;;;;;;;;;5955656;24;20160;-69
2024/02/29 04:27:31;;;;;;;45.83;19.20;;;;;;;;;;5955463;24;20438;-69
2024/02/29 04:29:57;;;;;;;52.93;19.73;;;;;;;;;;5980241;24;20206;-70
2024/02/29 04:32:23;;;;;;;52.43;21.47;;;;;;;;;;5979900;24;20056;-69
2024/02/29 04:34:48;;;;;;;54.40;22.50;;;;;;;;;;5955088;24;20008;-69
2024/02/29 04:37:15;;;;;;;58.93;22.20;;;;;;;;;;5955338;24;20040;-69
2024/02/29 04:39:41;;;;;;;53.27;20.93;;;;;;;;;;5979846;24;20090;-69
2024/02/29 04:42:07;;;;;;;45.87;20.27;;;;;;;;;;5980570;24;20032;-69
2024/02/29 04:44:32;;;;;;;47.77;19.60;;;;;;;;;;5954978;24;20398;-68
2024/02/29 04:46:58;;;;;;;45.30;18.27;;;;;;;;;;5955301;24;20011;-69
2024/02/29 04:49:23;;;;;;;43.70;17.63;;;;;;;;;;5955304;23;20019;-69
2024/02/29 04:51:49;;;;;;;49.33;21.87;;;;;;;;;;5955240;24;20014;-69
2024/02/29 04:54:16;;;;;;;46.20;18.77;;;;;;;;;;5979935;24;20539;-69
2024/02/29 04:56:42;;;;;;;59.13;19.57;;;;;;;;;;5979461;23;20020;-70
2024/02/29 04:59:09;;;;;;;42.20;17.60;;;;;;;;;;5979721;24;20116;-69
2024/02/29 05:01:34;;;;;;;46.37;18.53;;;;;;;;;;5954918;24;20383;-69
2024/02/29 05:04:00;;;;;;;41.53;18.27;;;;;;;;;;5955193;24;20016;-69
2024/02/29 05:06:25;;;;;;;47.67;19.70;;;;;;;;;;5954337;24;20016;-69
2024/02/29 05:08:51;;;;;;;42.23;18.23;;;;;;;;;;5980453;24;20345;-69
2024/02/29 05:11:17;;;;;;;52.40;18.73;;;;;;;;;;5979733;24;20004;-68
2024/02/29 05:13:43;;;;;;;39.03;18.13;;;;;;;;;;5980216;24;20362;-68
2024/02/29 05:16:08;;;;;;;50.83;19.20;;;;;;;;;;5979761;24;20000;-70
2024/02/29 05:18:34;;;;;;;43.33;18.73;;;;;;;;;;5979480;24;20039;-68
2024/02/29 05:20:59;;;;;;;47.57;19.20;;;;;;;;;;5979035;24;20011;-70
2024/02/29 05:23:25;;;;;;;44.30;18.37;;;;;;;;;;5955010;24;20389;-70
2024/02/29 05:25:51;;;;;;;43.53;18.03;;;;;;;;;;5979722;24;20334;-69
2024/02/29 05:28:16;;;;;;;36.30;17.30;;;;;;;;;;5980560;24;20012;-70
2024/02/29 05:30:45;;;;;;;39.43;16.17;;;;;;;;;;5977889;24;20031;-70
2024/02/29 05:33:10;;;;;;;40.03;17.57;;;;;;;;;;5979975;24;20087;-68
2024/02/29 05:35:36;;;;;;;40.53;17.73;;;;;;;;;;5954860;24;20461;-70
2024/02/29 05:38:02;;;;;;;38.40;16.27;;;;;;;;;;5954806;24;20091;-69
2024/02/29 05:40:28;;;;;;;39.77;16.50;;;;;;;;;;5979141;24;20027;-69
2024/02/29 05:42:53;;;;;;;40.47;16.80;;;;;;;;;;5979796;24;20015;-70
2024/02/29 05:45:19;;;;;;;38.67;17.00;;;;;;;;;;5954985;24;20044;-70
2024/02/29 05:47:44;;;;;;;33.83;13.73;;;;;;;;;;5980427;24;20008;-69
2024/02/29 05:50:10;;;;;;;40.53;16.33;;;;;;;;;;5979849;23;20342;-69
2024/02/29 05:52:36;;;;;;;30.90;15.10;;;;;;;;;;5954440;24;20015;-69
2024/02/29 05:55:05;;;;;;;31.20;15.20;;;;;;;;;;5979565;23;20019;-69
2024/02/29 05:57:31;;;;;;;37.90;15.63;;;;;;;;;;5979816;24;20040;-69
2024/02/29 06:00:00;;;;;;;36.63;15.00;;;;;;;;;;5954886;24;20018;-68
2024/02/29 06:02:30;;;;;;;33.90;15.13;;;;;;;;;;5954681;24;20012;-70
2024/02/29 06:04:58;;;;;;;33.10;13.80;;;;;;;;;;5980170;24;20004;-70
2024/02/29 06:07:23;;;;;;;34.80;15.17;;;;;;;;;;5979972;24;20141;-69
2024/02/29 06:09:50;;;;;;;31.90;12.80;;;;;;;;;;5979958;24;20008;-69
2024/02/29 06:12:17;;;;;;;27.80;12.87;;;;;;;;;;5979513;24;20083;-70
2024/02/29 06:14:42;;;;;;;31.93;14.67;;;;;;;;;;5978922;24;20015;-69
2024/02/29 06:17:08;;;;;;;35.00;13.90;;;;;;;;;;5954404;24;20311;-70
2024/02/29 06:19:38;;;;;;;41.33;15.53;;;;;;;;;;5954329;24;20014;-69
2024/02/29 06:22:07;;;;;;;31.07;13.20;;;;;;;;;;5979315;24;20008;-69
2024/02/29 06:24:33;;;;;;;32.57;13.83;;;;;;;;;;5979097;24;20000;-69
2024/02/29 06:27:00;;;;;;;34.87;14.43;;;;;;;;;;5953664;24;20040;-69
2024/02/29 06:29:25;;;;;;;30.37;14.07;;;;;;;;;;5953384;24;20071;-69
2024/02/29 06:31:51;;;;;;;34.20;14.27;;;;;;;;;;5953158;24;20012;-71
2024/02/29 06:34:18;;;;;;;31.83;13.37;;;;;;;;;;5953664;24;20428;-70
2024/02/29 06:36:44;;;;;;;33.63;13.57;;;;;;;;;;5953378;24;20040;-69
2024/02/29 06:39:10;;;;;;;33.40;14.20;;;;;;;;;;5931213;24;20012;-70
2024/02/29 06:41:36;;;;;;;28.03;14.67;;;;;;;;;;5953937;24;20007;-69
2024/02/29 06:44:05;;;;;;;29.90;13.33;;;;;;;;;;5977951;24;20079;-68
2024/02/29 06:46:31;;;;;;;32.73;14.27;;;;;;;;;;5953244;24;20022;-69
2024/02/29 06:48:58;;;;;;;28.67;14.27;;;;;;;;;;5953524;24;20008;-70
2024/02/29 06:51:23;;;;;;;31.63;14.43;;;;;;;;;;5977922;23;20020;-69
2024/02/29 06:53:50;;;;;;;32.03;14.93;;;;;;;;;;5978078;24;20008;-70
2024/02/29 06:56:16;;;;;;;34.17;15.00;;;;;;;;;;5952628;24;20080;-70
2024/02/29 06:58:44;;;;;;;34.60;14.00;;;;;;;;;;5953783;24;20379;-70
2024/02/29 07:01:12;;;;;;;37.20;16.20;;;;;;;;;;5954228;24;20012;-68
2024/02/29 07:03:38;;;;;;;32.67;14.47;;;;;;;;;;5952702;24;20068;-69
2024/02/29 07:06:05;;;;;;;33.90;14.67;;;;;;;;;;5954837;24;20012;-71
2024/02/29 07:08:34;;;;;;;29.20;13.43;;;;;;;;;;5955015;24;20068;-69
2024/02/29 07:11:01;;;;;;;30.10;14.27;;;;;;;;;;5955575;24;20008;-71
2024/02/29 07:13:27;;;;;;;32.00;14.13;;;;;;;;;;5955419;24;20016;-71
2024/02/29 07:15:53;;;;;;;25.73;12.67;;;;;;;;;;5955115;24;20411;-71
2024/02/29 07:18:18;;;;;;;34.33;14.07;;;;;;;;;;5979612;24;20079;-71
2024/02/29 07:20:45;;;;;;;30.30;14.00;;;;;;;;;;5979654;24;20077;-69
2024/02/29 07:23:11;;;;;;;29.97;14.37;;;;;;;;;;5979219;24;20552;-70
2024/02/29 07:25:37;;;;;;;62.13;26.90;;;;;;;;;;5954524;24;20044;-70
2024/02/29 07:28:05;;;;;;;37.97;16.63;;;;;;;;;;5955550;24;20004;-70
2024/02/29 07:30:36;;;;;;;34.67;14.87;;;;;;;;;;5979565;24;20012;-69
2024/02/29 07:33:02;;;;;;;31.93;15.10;;;;;;;;;;5954979;24;20004;-69
2024/02/29 07:35:31;;;;;;;33.63;13.80;;;;;;;;;;5954949;24;20004;-69
2024/02/29 07:37:57;;;;;;;39.20;15.13;;;;;;;;;;5979811;24;20008;-69
2024/02/29 07:40:23;;;;;;;27.37;13.10;;;;;;;;;;5931876;24;20341;-70
2024/02/29 07:42:49;;;;;;;42.10;16.77;;;;;;;;;;5955401;24;20087;-73
2024/02/29 07:45:18;;;;;;;30.37;13.10;;;;;;;;;;5976416;24;20446;-72
2024/02/29 07:47:44;;;;;;;51.37;15.63;;;;;;;;;;5954393;24;20430;-70
2024/02/29 07:50:11;;;;;;;35.37;15.70;;;;;;;;;;5950471;24;20008;-70
2024/02/29 07:52:38;;;;;;;32.93;14.77;;;;;;;;;;5954252;24;20012;-70
2024/02/29 07:55:05;;;;;;;30.43;14.57;;;;;;;;;;5980950;23;20020;-69
2024/02/29 07:57:31;;;;;;;32.63;13.67;;;;;;;;;;5956396;24;20012;-70
2024/02/29 07:59:57;;;;;;;31.27;14.00;;;;;;;;;;5955895;24;20015;-70
2024/02/29 08:02:23;;;;;;;30.03;13.50;;;;;;;;;;5978556;24;20353;-71
2024/02/29 08:04:49;;;;;;;35.77;16.43;;;;;;;;;;5980588;24;20391;-69
2024/02/29 08:07:14;;;;;;;36.33;15.00;;;;;;;;;;5956572;24;20008;-69
2024/02/29 08:09:40;;;;;;;28.43;13.83;;;;;;;;;;5955489;24;20055;-69
2024/02/29 08:12:06;;;;;;;32.27;14.33;;;;;;;;;;5956261;24;20015;-70
2024/02/29 08:14:32;;;;;;;36.80;14.77;;;;;;;;;;5960059;24;20004;-71
2024/02/29 08:16:58;;;;;;;30.03;14.13;;;;;;;;;;5960660;24;20023;-70
2024/02/29 08:19:25;;;;;;;37.60;15.33;;;;;;;;;;5983390;24;20008;-71
2024/02/29 08:21:51;;;;;;;34.13;14.73;;;;;;;;;;5955617;24;20023;-69
2024/02/29 08:24:19;;;;;;;36.40;14.77;;;;;;;;;;5980273;24;20099;-70
2024/02/29 08:26:45;;;;;;;33.87;14.37;;;;;;;;;;5980729;24;20578;-71
2024/02/29 08:29:14;;;;;;;36.33;14.77;;;;;;;;;;5957604;24;20012;-69
2024/02/29 08:31:43;;;;;;;41.20;14.97;;;;;;;;;;5982798;24;20076;-70
2024/02/29 08:34:10;;;;;;;38.53;15.00;;;;;;;;;;5934251;24;20068;-72
2024/02/29 08:36:49;;;;;;;27.97;13.23;;;;;;;;;;5957626;24;20450;-73
2024/02/29 08:39:17;;;;;;;38.13;15.77;;;;;;;;;;5982480;24;20068;-69
2024/02/29 08:41:44;;;;;;;38.87;15.03;;;;;;;;;;5980608;24;20012;-70
2024/02/29 08:44:11;;;;;;;31.97;15.87;;;;;;;;;;5980254;24;20004;-70
2024/02/29 08:46:37;;;;;;;38.30;16.27;;;;;;;;;;5956458;24;20038;-71
2024/02/29 08:49:02;;;;;;;34.50;15.30;;;;;;;;;;5957234;24;20004;-73
2024/02/29 08:51:29;;;;;;;32.00;15.77;;;;;;;;;;5984740;23;20000;-72
2024/02/29 08:53:55;;;;;;;40.57;14.90;;;;;;;;;;5984963;24;20004;-73
2024/02/29 08:56:20;;;;;;;35.47;17.00;;;;;;;;;;5959310;23;20084;-70
2024/02/29 08:58:46;;;;;;;33.93;16.60;;;;;;;;;;5985580;24;20437;-71
2024/02/29 09:01:12;;;;;;;33.67;17.37;;;;;;;;;;5959606;24;20087;-73
2024/02/29 09:03:38;;;;;;;34.70;16.17;;;;;;;;;;5960040;24;20016;-72
2024/02/29 09:06:05;;;;;;;44.80;21.90;;;;;;;;;;5959891;24;20012;-73
2024/02/29 09:08:31;;;;;;;39.77;17.37;;;;;;;;;;5937792;24;20106;-71
2024/02/29 09:11:03;;;;;;;40.83;17.47;;;;;;;;;;5984648;24;20008;-74
2024/02/29 09:13:30;;;;;;;40.97;18.07;;;;;;;;;;5984363;24;20013;-72
2024/02/29 09:15:57;;;;;;;39.90;18.20;;;;;;;;;;5963908;24;20004;-72
2024/02/29 09:18:23;;;;;;;41.83;17.97;;;;;;;;;;5962128;24;20019;-73
2024/02/29 09:20:49;;;;;;;35.83;17.40;;;;;;;;;;5961014;24;20016;-71
2024/02/29 09:23:15;;;;;;;33.50;16.57;;;;;;;;;;5986658;24;20008;-72
2024/02/29 09:25:41;;;;;;;32.97;15.27;;;;;;;;;;5960218;24;20474;-72
2024/02/29 09:28:08;;;;;;;35.20;17.00;;;;;;;;;;5987244;24;20462;-73
2024/02/29 09:30:33;;;;;;;34.50;15.63;;;;;;;;;;5961069;24;20008;-73
2024/02/29 09:32:59;;;;;;;40.23;17.97;;;;;;;;;;5961370;24;20032;-72
2024/02/29 09:35:25;;;;;;;35.50;15.87;;;;;;;;;;5986058;24;20076;-72
2024/02/29 09:37:53;;;;;;;33.40;15.27;;;;;;;;;;5960776;24;20019;-74
2024/02/29 09:40:20;;;;;;;34.73;15.47;;;;;;;;;;5937716;24;20019;-73
2024/02/29 09:42:47;;;;;;;34.83;16.43;;;;;;;;;;5960638;24;20090;-72
2024/02/29 09:45:24;;;;;;;39.90;16.27;;;;;;;;;;5962375;24;20012;-73
2024/02/29 09:47:50;;;;;;;37.50;16.70;;;;;;;;;;5986828;24;20083;-72
2024/02/29 09:50:17;;;;;;;43.00;17.77;;;;;;;;;;5962376;24;20012;-73
2024/02/29 09:52:46;;;;;;;38.67;16.03;;;;;;;;;;5962862;24;20407;-71
2024/02/29 09:55:13;;;;;;;36.33;15.73;;;;;;;;;;5986599;23;20023;-71
2024/02/29 09:57:39;;;;;;;41.40;17.20;;;;;;;;;;5986242;24;20068;-73
2024/02/29 10:00:10;;;;;;;35.73;15.97;;;;;;;;;;5988030;24;20008;-72
2024/02/29 10:02:39;;;;;;;38.67;16.70;;;;;;;;;;5963761;24;20038;-71
2024/02/29 10:05:09;;;;;;;37.53;17.47;;;;;;;;;;5987542;24;20463;-69
2024/02/29 10:07:47;;;;;;;45.27;20.00;;;;;;;;;;5961221;24;20008;-74
2024/02/29 10:10:13;;;;;;;42.10;17.63;;;;;;;;;;5939366;24;20016;-70
2024/02/29 10:12:43;;;;;;;47.97;19.07;;;;;;;;;;5960383;24;20610;-72
2024/02/29 10:15:10;;;;;;;42.38;18.52;;;;;;;;;;5985804;24;20029;-71
2024/02/29 10:17:39;;;;;;;36.75;17.55;;;;;;;;;;5960243;24;20015;-70
2024/02/29 10:20:12;;;;;;;37.67;16.73;;;;;;;;;;5987335;24;20008;-70
2024/02/29 10:22:43;;;;;;;50.30;17.60;;;;;;;;;;5963564;24;20019;-70
2024/02/29 10:25:14;;;;;;;38.55;18.08;;;;;;;;;;5941855;24;20023;-72
2024/02/29 10:27:41;;;;;;;35.20;17.42;;;;;;;;;;5946336;24;20004;-73
2024/02/29 10:30:18;;;;;;;38.95;17.77;;;;;;;;;;5969648;24;20035;-72
2024/02/29 10:32:45;;;;;;;40.40;17.58;;;;;;;;;;5970058;24;20016;-71
2024/02/29 10:35:28;;;;;;;42.17;18.13;;;;;;;;;;5990980;24;20008;-72
2024/02/29 10:37:55;;;;;;;39.55;17.73;;;;;;;;;;5987684;24;20091;-74
2024/02/29 10:40:24;;;;;;;41.00;18.13;;;;;;;;;;5985980;24;20004;-72
2024/02/29 10:42:51;;;;;;;41.13;17.52;;;;;;;;;;5986227;24;20358;-73
2024/02/29 10:45:19;;;;;;;38.33;17.35;;;;;;;;;;5961796;24;20075;-71
2024/02/29 10:47:57;;;;;;;39.67;18.50;;;;;;;;;;5959052;24;20047;-71
2024/02/29 10:50:26;;;;;;;39.55;17.13;;;;;;;;;;5981091;23;20012;-71
2024/02/29 10:53:17;;;;;;;37.67;18.48;;;;;;;;;;5933216;24;20076;-71
2024/02/29 10:55:51;;;;;;;42.92;18.38;;;;;;;;;;5981534;23;20024;-72
2024/02/29 10:58:25;;;;;;;37.55;17.98;;;;;;;;;;5981886;24;20008;-70
2024/02/29 11:00:55;;;;;;;40.45;18.15;;;;;;;;;;5957010;24;20015;-71
2024/02/29 11:03:21;;;;;;;40.50;18.45;;;;;;;;;;5955066;24;20095;-70
2024/02/29 11:05:51;;;;;;;39.90;18.63;;;;;;;;;;5954808;24;20095;-69
2024/02/29 11:08:24;;;;;;;39.13;17.60;;;;;;;;;;5954297;24;20016;-69
2024/02/29 11:10:54;;;;;;;43.63;19.45;;;;;;;;;;5980242;24;20008;-70
2024/02/29 11:13:20;;;;;;;38.55;18.45;;;;;;;;;;5955391;24;20008;-70
2024/02/29 11:15:50;;;;;;;43.83;18.95;;;;;;;;;;5954535;24;20007;-70
2024/02/29 11:18:24;;;;;;;42.67;19.77;;;;;;;;;;5955886;24;20091;-70
2024/02/29 11:21:06;;;;;;;40.15;20.27;;;;;;;;;;5954370;24;20012;-71
2024/02/29 11:23:35;;;;;;;;;;;;;;;;;;5932649;24;20030;-72
2024/02/29 11:26:10;;;;;;;43.47;19.10;;;;;;;;;;5953066;24;20248;-72
2024/02/29 11:28:51;;;;;;;42.25;20.95;;;;;;;;;;5954634;24;20091;-71
2024/02/29 11:31:17;;;;;;;37.65;18.73;;;;;;;;;;5951579;24;20476;-71
2024/02/29 11:33:48;;;;;;;43.17;19.77;;;;;;;;;;5954010;24;20019;-72
2024/02/29 11:36:14;;;;;;;51.80;20.48;;;;;;;;;;5979242;24;20060;-71
2024/02/29 11:38:41;;;;;;;38.53;18.73;;;;;;;;;;5979442;24;20043;-69
2024/02/29 11:41:20;;;;;;;52.13;22.27;;;;;;;;;;5953699;24;20008;-71
2024/02/29 11:43:48;;;;;;;44.80;20.95;;;;;;;;;;5978904;24;20012;-71
2024/02/29 11:46:15;;;;;;;45.65;20.95;;;;;;;;;;5978382;24;20012;-70
2024/02/29 11:48:41;;;;;;;45.97;20.60;;;;;;;;;;5955426;24;20012;-69
2024/02/29 11:51:10;;;;;;;39.63;19.60;;;;;;;;;;5954253;24;20016;-71
2024/02/29 11:53:43;;;;;;;45.38;19.88;;;;;;;;;;5955498;24;20366;-69
2024/02/29 11:56:10;;;;;;;46.65;19.17;;;;;;;;;;5977171;23;20024;-70
2024/02/29 11:58:36;;;;;;;48.22;21.15;;;;;;;;;;5955175;24;20100;-70
2024/02/29 12:01:03;;;;;;;49.42;22.02;;;;;;;;;;5977980;24;20023;-69
2024/02/29 12:03:29;;;;;;;46.08;19.60;;;;;;;;;;5932051;24;20095;-69
2024/02/29 12:05:59;;;;;;;42.50;20.05;;;;;;;;;;5980138;24;20008;-71
2024/02/29 12:08:27;;;;;;;39.35;17.92;;;;;;;;;;5977677;24;20020;-71
2024/02/29 12:10:59;;;;;;;48.40;20.42;;;;;;;;;;5980136;24;20079;-70
2024/02/29 12:13:25;;;;;;;41.78;19.45;;;;;;;;;;5980309;24;20012;-70
2024/02/29 12:15:52;;;;;;;42.83;19.85;;;;;;;;;;5954475;24;20319;-71
2024/02/29 12:18:20;;;;;;;49.60;21.75;;;;;;;;;;5956182;24;20011;-69
2024/02/29 12:20:47;;;;;;;44.80;20.83;;;;;;;;;;5955798;24;20008;-70
2024/02/29 12:23:15;;;;;;;49.92;22.13;;;;;;;;;;5981460;24;20004;-71
2024/02/29 12:25:45;;;;;;;54.33;22.85;;;;;;;;;;5957863;24;20055;-70
2024/02/29 12:28:12;;;;;;;46.25;20.77;;;;;;;;;;5953590;24;20004;-70
2024/02/29 12:30:38;;;;;;;46.20;20.55;;;;;;;;;;5977981;24;20067;-71
2024/02/29 12:33:05;;;;;;;45.05;20.00;;;;;;;;;;5955254;24;20016;-71
2024/02/29 12:35:34;;;;;;;48.92;21.35;;;;;;;;;;5953434;24;20073;-72
2024/02/29 12:38:03;;;;;;;46.63;20.90;;;;;;;;;;5954420;24;20004;-69
2024/02/29 12:40:34;;;;;;;50.75;20.58;;;;;;;;;;5933840;24;20064;-68
2024/02/29 12:42:59;;;;;;;51.40;22.95;;;;;;;;;;5982148;24;20008;-69
2024/02/29 12:45:27;;;;;;;49.38;21.90;;;;;;;;;;5955724;24;20091;-70
2024/02/29 12:47:56;;;;;;;49.70;22.02;;;;;;;;;;5954241;24;20012;-70
2024/02/29 12:50:26;;;;;;;47.58;21.52;;;;;;;;;;5980664;23;20008;-70
2024/02/29 12:52:54;;;;;;;50.22;23.63;;;;;;;;;;5987086;24;20075;-74
2024/02/29 12:55:24;;;;;;;53.70;21.98;;;;;;;;;;5965247;23;20350;-75
2024/02/29 12:57:50;;;;;;;56.15;23.27;;;;;;;;;;5987802;24;20070;-74
2024/02/29 13:00:24;;;;;;;54.63;23.05;;;;;;;;;;5961757;24;20037;-73
2024/02/29 13:02:50;;;;;;;56.22;22.25;;;;;;;;;;5938160;24;20084;-75
2024/02/29 13:05:17;;;;;;;54.10;22.88;;;;;;;;;;5985834;24;20004;-76
2024/02/29 13:07:44;;;;;;;51.25;24.25;;;;;;;;;;5959596;24;20485;-74
2024/02/29 13:10:10;;;;;;;48.28;22.80;;;;;;;;;;5961320;24;20101;-72
2024/02/29 13:12:39;;;;;;;52.70;22.63;;;;;;;;;;5960932;24;20342;-74
2024/02/29 13:15:05;;;;;;;61.55;25.60;;;;;;;;;;5987104;24;20091;-75
2024/02/29 13:17:31;;;;;;;47.65;23.48;;;;;;;;;;5986687;24;20024;-76
2024/02/29 13:19:57;;;;;;;51.83;23.10;;;;;;;;;;5961104;24;20049;-76
2024/02/29 13:22:22;;;;;;;49.92;24.25;;;;;;;;;;5984578;24;20004;-74
2024/02/29 13:24:48;;;;;;;54.00;24.10;;;;;;;;;;5960878;24;20272;-74
2024/02/29 13:27:15;;;;;;;55.15;22.83;;;;;;;;;;5985826;24;20004;-75
2024/02/29 13:29:41;;;;;;;54.08;25.35;;;;;;;;;;5961414;24;20274;-75
2024/02/29 13:32:07;;;;;;;56.30;23.98;;;;;;;;;;5961390;24;20022;-73
2024/02/29 13:34:33;;;;;;;57.13;23.27;;;;;;;;;;5960435;24;20430;-75
2024/02/29 13:36:59;;;;;;;52.85;23.98;;;;;;;;;;5958741;24;20184;-76
2024/02/29 13:39:24;;;;;;;54.08;26.50;;;;;;;;;;5960242;24;20128;-73
2024/02/29 13:41:51;;;;;;;53.10;23.65;;;;;;;;;;5961288;24;20037;-74
2024/02/29 13:44:17;;;;;;;51.72;24.58;;;;;;;;;;5958749;24;20012;-72
2024/02/29 13:46:43;;;;;;;58.85;25.42;;;;;;;;;;5985412;24;20530;-75
2024/02/29 13:49:09;;;;;;;58.53;25.65;;;;;;;;;;5984814;23;20033;-75
2024/02/29 13:51:35;;;;;;;64.50;25.27;;;;;;;;;;5960697;24;20020;-74
2024/02/29 13:54:05;;;;;;;53.42;23.75;;;;;;;;;;5981657;24;20016;-75
2024/02/29 13:56:33;;;;;;;56.83;25.17;;;;;;;;;;5983248;23;20015;-74
2024/02/29 13:59:00;;;;;;;57.00;25.88;;;;;;;;;;6013868;23;20107;-74
2024/02/29 14:01:26;;;;;;;58.08;25.58;;;;;;;;;;6013853;23;20000;-74
2024/02/29 14:03:51;;;;;;;55.45;26.00;;;;;;;;;;5988658;23;20434;-73
2024/02/29 14:06:18;;;;;;;60.17;25.92;;;;;;;;;;5989148;23;20449;-73
2024/02/29 14:08:46;;;;;;;52.53;24.52;;;;;;;;;;6011509;23;20438;-76
2024/02/29 14:11:11;;;;;;;52.35;23.85;;;;;;;;;;6010570;23;20122;-74
2024/02/29 14:13:37;;;;;;;49.72;24.55;;;;;;;;;;5987068;23;20012;-73
2024/02/29 14:16:02;;;;;;;53.65;23.80;;;;;;;;;;6012544;23;20000;-69
2024/02/29 14:18:29;;;;;;;55.75;26.45;;;;;;;;;;5988048;23;20349;-75